Time;durP1;ratioP1;P1;durP2;ratioP2;P2;SDS_P1;SDS_P2;PMS_P1;PMS_P2;Temp;Humidity;BMP_temperature;BMP_pressure;BME280_temperature;BME280_humidity;BME280_pressure;Samples;Min_cycle;Max_cycle;Signal;HPM_P1;HPM_P2
2021/12/14 00:01:10;;;;;;;11.32;5.63;;;8.80;99.90;;;;;;4162958;28;20045;-82
2021/12/14 00:03:15;;;;;;;11.50;5.78;;;8.80;99.90;;;;;;4180873;28;20052;-83
2021/12/14 00:05:18;;;;;;;11.05;5.40;;;8.80;99.90;;;;;;4162359;28;20056;-81
2021/12/14 00:07:21;;;;;;;14.88;5.63;;;8.80;99.90;;;;;;4180306;28;20600;-82
2021/12/14 00:09:28;;;;;;;13.40;6.13;;;8.80;99.90;;;;;;4179889;28;20044;-82
2021/12/14 00:15:41;;;;;;;12.95;5.70;;;8.80;99.90;;;;;;4180106;28;20522;-82
2021/12/14 00:17:47;;;;;;;11.45;6.13;;;8.80;99.90;;;;;;4162153;28;20057;-82
2021/12/14 00:19:50;;;;;;;13.18;6.30;;;8.80;99.90;;;;;;4179565;28;20036;-82
2021/12/14 00:21:54;;;;;;;12.48;5.38;;;9.30;99.90;;;;;;4162135;28;20057;-82
2021/12/14 00:24:10;;;;;;;11.45;5.70;;;9.10;99.90;;;;;;4180553;28;20092;-82
2021/12/14 00:26:12;;;;;;;11.60;5.40;;;8.90;99.90;;;;;;4180716;28;20045;-83
2021/12/14 00:28:21;;;;;;;12.02;5.97;;;8.80;99.90;;;;;;4161471;28;20053;-82
2021/12/14 00:30:23;;;;;;;17.80;6.60;;;8.80;99.90;;;;;;4163299;28;20057;-82
2021/12/14 00:32:27;;;;;;;12.00;6.30;;;8.80;99.90;;;;;;4180286;28;20088;-82
2021/12/14 00:35:02;;;;;;;15.57;6.35;;;8.80;99.90;;;;;;4179473;28;20057;-83
2021/12/14 00:36:56;;;;;;;12.93;5.57;;;8.80;99.90;;;;;;4161911;28;20045;-82
2021/12/14 00:38:57;;;;;;;13.18;6.53;;;8.80;99.90;;;;;;4163922;28;20049;-82
2021/12/14 00:41:03;;;;;;;13.25;6.28;;;8.70;99.90;;;;;;4172948;28;20446;-82
2021/12/14 00:43:06;;;;;;;13.50;6.00;;;8.80;99.90;;;;;;4162048;28;20049;-82
2021/12/14 00:45:07;;;;;;;13.60;5.85;;;8.70;99.90;;;;;;4161325;28;20107;-82
2021/12/14 00:47:08;;;;;;;12.80;5.57;;;8.70;99.90;;;;;;4151393;28;20096;-82
2021/12/14 00:49:13;;;;;;;11.95;5.68;;;9.10;99.90;;;;;;4180512;28;20052;-83
2021/12/14 00:51:14;;;;;;;15.65;5.40;;;8.80;99.90;;;;;;4162328;28;20053;-82
2021/12/14 00:53:15;;;;;;;13.48;5.30;;;8.70;99.90;;;;;;4145869;28;20165;-82
2021/12/14 00:55:25;;;;;;;14.80;6.03;;;8.80;99.90;;;;;;4179635;28;20049;-83
2021/12/14 00:57:25;;;;;;;13.57;5.75;;;8.80;99.90;;;;;;4162566;28;20078;-83
2021/12/14 00:59:26;;;;;;;12.20;5.30;;;8.80;99.90;;;;;;4179967;28;20068;-82
2021/12/14 01:01:33;;;;;;;11.32;5.60;;;9.20;99.90;;;;;;4147028;28;20049;-82
2021/12/14 01:03:36;;;;;;;12.70;5.38;;;8.80;99.90;;;;;;4145696;28;20061;-83
2021/12/14 01:05:40;;;;;;;12.65;5.93;;;8.80;99.90;;;;;;4160597;28;20129;-83
2021/12/14 01:07:42;;;;;;;12.25;5.25;;;8.20;99.90;;;;;;4180274;28;20055;-83
2021/12/14 01:09:47;;;;;;;10.18;5.40;;;8.80;99.90;;;;;;4180305;28;20045;-83
2021/12/14 01:11:50;;;;;;;10.93;5.50;;;8.70;99.90;;;;;;4180147;28;20120;-83
2021/12/14 01:14:04;;;;;;;15.77;5.72;;;8.80;99.90;;;;;;4162732;28;20057;-83
2021/12/14 01:16:33;;;;;;;12.88;5.70;;;8.80;99.90;;;;;;4180045;28;20034;-82
2021/12/14 01:20:49;;;;;;;11.38;5.13;;;9.40;99.90;;;;;;4165459;28;20053;-82
2021/12/14 01:22:59;;;;;;;14.50;5.63;;;9.40;99.90;;;;;;4165410;28;20433;-83
2021/12/14 01:25:10;;;;;;;11.48;5.63;;;8.70;99.90;;;;;;4165708;28;20050;-83
2021/12/14 01:27:17;;;;;;;11.48;5.22;;;8.70;99.90;;;;;;4183272;28;20049;-82
2021/12/14 01:29:19;;;;;;;13.30;6.03;;;8.70;99.90;;;;;;4164828;28;20405;-83
2021/12/14 01:31:30;;;;;;;11.88;5.40;;;8.70;99.90;;;;;;4183549;28;20578;-82
2021/12/14 01:33:32;;;;;;;10.77;5.55;;;8.90;99.90;;;;;;4183200;28;20045;-82
2021/12/14 01:35:37;;;;;;;13.93;5.65;;;8.70;99.90;;;;;;4173096;28;20045;-82
2021/12/14 01:37:45;;;;;;;13.40;5.65;;;8.70;99.90;;;;;;4166609;28;20482;-83
2021/12/14 01:42:01;;;;;;;11.60;5.90;;;9.80;99.90;;;;;;4166916;28;20053;-83
2021/12/14 01:44:02;;;;;;;11.68;6.28;;;8.70;99.90;;;;;;4149244;28;20081;-83
2021/12/14 01:46:13;;;;;;;12.05;5.43;;;8.70;99.90;;;;;;4151044;28;20061;-83
2021/12/14 01:48:14;;;;;;;14.55;6.07;;;8.70;99.90;;;;;;4182783;28;20041;-83
2021/12/14 01:50:30;;;;;;;11.05;5.90;;;9.70;99.90;;;;;;4181048;28;20041;-83
2021/12/14 01:52:33;;;;;;;15.57;6.70;;;9.20;99.90;;;;;;4138107;28;20060;-82
2021/12/14 01:54:42;;;;;;;11.40;6.13;;;9.40;99.90;;;;;;4182743;28;20041;-83
2021/12/14 01:56:43;;;;;;;12.18;5.90;;;8.70;99.90;;;;;;4164537;28;20501;-83
2021/12/14 01:58:49;;;;;;;13.02;5.57;;;8.80;99.90;;;;;;4182572;28;20041;-83
2021/12/14 02:01:01;;;;;;;12.32;6.78;;;9.10;99.90;;;;;;4165069;28;20077;-83
2021/12/14 02:03:05;;;;;;;15.25;6.32;;;8.60;99.90;;;;;;4164986;28;20123;-83
2021/12/14 02:05:28;;;;;;;15.90;6.13;;;9.00;99.90;;;;;;4164491;28;20057;-83
2021/12/14 02:07:30;;;;;;;11.60;6.00;;;8.60;99.90;;;;;;4164322;28;20053;-83
2021/12/14 02:09:34;;;;;;;15.98;7.00;;;8.70;99.90;;;;;;4168626;28;20053;-84
2021/12/14 02:11:39;;;;;;;14.85;6.40;;;8.60;99.90;;;;;;4162429;28;20049;-83
2021/12/14 02:13:44;;;;;;;12.32;6.05;;;8.60;99.90;;;;;;4164769;28;20053;-83
2021/12/14 02:15:45;;;;;;;17.45;7.47;;;9.70;99.90;;;;;;4176538;28;20398;-83
2021/12/14 02:17:47;;;;;;;18.08;7.28;;;8.60;99.90;;;;;;4181636;28;20052;-83
2021/12/14 02:19:50;;;;;;;13.07;7.07;;;9.10;99.90;;;;;;4164037;28;20096;-83
2021/12/14 02:21:54;;;;;;;15.48;7.05;;;8.80;99.90;;;;;;4164788;28;20480;-83
2021/12/14 02:23:57;;;;;;;14.10;6.60;;;8.60;99.90;;;;;;4165855;28;20513;-83
2021/12/14 02:26:01;;;;;;;16.23;6.90;;;8.60;99.90;;;;;;4139068;28;20112;-82
2021/12/14 02:28:05;;;;;;;15.43;7.10;;;8.60;99.90;;;;;;4133324;28;20052;-83
2021/12/14 02:30:10;;;;;;;18.02;7.78;;;8.60;99.90;;;;;;4148129;28;20062;-82
2021/12/14 02:32:21;;;;;;;20.95;7.65;;;8.60;99.90;;;;;;4164237;28;20049;-83
2021/12/14 02:34:22;;;;;;;15.88;7.93;;;8.60;99.90;;;;;;4152378;28;20058;-83
2021/12/14 02:36:46;;;;;;;13.75;7.30;;;8.60;99.90;;;;;;4164371;28;20137;-83
2021/12/14 02:38:53;;;;;;;15.43;7.40;;;8.60;99.90;;;;;;4182025;28;20060;-82
2021/12/14 02:41:01;;;;;;;15.70;7.05;;;8.80;99.90;;;;;;4182464;28;20049;-83
2021/12/14 02:43:03;;;;;;;16.27;8.15;;;8.70;99.90;;;;;;4166078;28;20037;-82
2021/12/14 02:45:04;;;;;;;16.88;8.30;;;8.60;99.90;;;;;;4165644;28;20505;-82
2021/12/14 02:47:12;;;;;;;16.63;7.60;;;8.50;99.90;;;;;;4175150;28;20045;-83
2021/12/14 02:49:18;;;;;;;19.50;8.32;;;9.50;99.90;;;;;;4164317;28;20049;-82
2021/12/14 02:51:30;;;;;;;16.20;8.05;;;8.50;99.90;;;;;;4164316;28;20137;-82
2021/12/14 02:53:31;;;;;;;18.40;7.60;;;8.50;99.90;;;;;;4181822;28;20048;-82
2021/12/14 02:55:33;;;;;;;17.52;8.45;;;8.50;99.90;;;;;;4163638;28;20044;-82
2021/12/14 02:57:38;;;;;;;17.80;8.15;;;8.40;99.90;;;;;;4180583;28;20350;-82
2021/12/14 02:59:42;;;;;;;19.73;9.10;;;9.20;99.90;;;;;;4166665;28;20057;-82
2021/12/14 03:01:45;;;;;;;22.15;8.30;;;8.40;99.90;;;;;;4165228;28;20106;-82
2021/12/14 03:03:46;;;;;;;17.70;8.40;;;8.40;99.90;;;;;;4147793;28;20061;-82
2021/12/14 03:05:49;;;;;;;20.67;8.40;;;8.70;99.90;;;;;;4163851;28;20091;-83
2021/12/14 03:07:58;;;;;;;17.13;8.38;;;8.40;99.90;;;;;;4181761;28;20044;-83
2021/12/14 03:10:20;;;;;;;16.80;8.23;;;8.40;99.90;;;;;;4163405;28;20103;-84
2021/12/14 03:12:41;;;;;;;16.48;8.45;;;8.40;99.90;;;;;;4181703;28;20095;-82
2021/12/14 03:14:50;;;;;;;18.83;8.60;;;8.40;99.90;;;;;;4173294;28;20049;-83
2021/12/14 03:16:51;;;;;;;21.55;8.23;;;8.40;99.90;;;;;;4173108;28;20052;-83
2021/12/14 03:18:55;;;;;;;18.60;8.75;;;8.40;99.90;;;;;;4147324;28;20402;-82
2021/12/14 03:21:01;;;;;;;19.08;8.20;;;7.80;99.90;;;;;;4164146;28;20054;-83
2021/12/14 03:23:06;;;;;;;21.33;8.48;;;9.50;99.90;;;;;;4163071;28;20073;-83
2021/12/14 03:25:09;;;;;;;17.73;8.30;;;9.40;99.90;;;;;;4181605;28;20049;-82
2021/12/14 03:27:10;;;;;;;17.83;7.70;;;8.60;99.90;;;;;;4163815;28;20493;-83
2021/12/14 03:29:23;;;;;;;20.75;9.35;;;8.40;99.90;;;;;;4163504;28;20093;-83
2021/12/14 03:31:43;;;;;;;14.98;7.85;;;8.40;99.90;;;;;;4180050;28;20065;-83
2021/12/14 03:33:47;;;;;;;18.95;8.05;;;8.40;99.90;;;;;;4164015;28;20054;-83
2021/12/14 03:35:52;;;;;;;19.80;8.70;;;8.40;99.90;;;;;;4179906;28;20049;-83
2021/12/14 03:38:06;;;;;;;24.00;9.68;;;8.40;99.90;;;;;;4180515;28;20041;-83
2021/12/14 03:40:08;;;;;;;21.52;9.18;;;8.70;99.90;;;;;;4162861;28;20053;-83
2021/12/14 03:42:18;;;;;;;22.30;9.20;;;8.40;99.90;;;;;;4162463;28;20473;-83
2021/12/14 03:44:31;;;;;;;23.52;9.60;;;8.60;99.90;;;;;;4162920;28;20057;-82
2021/12/14 03:46:38;;;;;;;20.20;8.65;;;8.30;99.90;;;;;;4180350;28;20052;-83
2021/12/14 03:48:39;;;;;;;20.90;8.30;;;9.20;99.90;;;;;;4152830;28;20060;-83
2021/12/14 03:50:41;;;;;;;16.80;8.43;;;7.60;99.90;;;;;;4146572;28;20046;-83
2021/12/14 03:52:43;;;;;;;18.10;8.38;;;8.40;99.90;;;;;;4171254;28;20041;-83
2021/12/14 03:54:44;;;;;;;23.00;9.20;;;8.40;99.90;;;;;;4181427;28;20136;-83
2021/12/14 03:56:47;;;;;;;19.30;9.23;;;8.40;99.90;;;;;;4181119;28;20406;-83
2021/12/14 03:58:48;;;;;;;18.92;8.40;;;8.40;99.90;;;;;;4163720;28;20081;-83
2021/12/14 04:00:56;;;;;;;23.80;9.02;;;9.50;99.90;;;;;;4164429;28;20052;-83
2021/12/14 04:03:00;;;;;;;20.63;7.70;;;9.30;99.90;;;;;;4165480;28;20079;-83
2021/12/14 04:05:09;;;;;;;22.90;9.23;;;8.50;99.90;;;;;;4157856;28;20061;-83
2021/12/14 04:07:13;;;;;;;20.17;10.07;;;8.30;99.90;;;;;;4176542;28;20504;-83
2021/12/14 04:09:17;;;;;;;19.85;9.07;;;8.80;99.90;;;;;;4170184;28;20053;-83
2021/12/14 04:11:18;;;;;;;17.48;8.50;;;8.90;99.90;;;;;;4182442;28;20049;-83
2021/12/14 04:13:23;;;;;;;21.55;8.73;;;8.70;99.90;;;;;;4195990;28;20059;-83
2021/12/14 04:15:24;;;;;;;25.27;9.45;;;8.40;99.90;;;;;;4185245;28;20553;-82
2021/12/14 04:17:28;;;;;;;19.23;9.40;;;8.30;99.90;;;;;;4181053;28;20049;-83
2021/12/14 04:19:31;;;;;;;22.90;10.68;;;9.20;99.90;;;;;;4162615;28;20049;-82
2021/12/14 04:21:35;;;;;;;20.25;9.07;;;8.40;99.90;;;;;;4169310;28;20041;-82
2021/12/14 04:23:43;;;;;;;22.17;9.40;;;8.60;99.90;;;;;;4178862;28;20045;-82
2021/12/14 04:25:46;;;;;;;20.67;9.10;;;9.20;99.90;;;;;;4180790;28;20045;-82
2021/12/14 04:27:48;;;;;;;19.80;9.13;;;8.80;99.90;;;;;;4180149;28;20080;-81
2021/12/14 04:29:49;;;;;;;20.30;8.88;;;8.40;99.90;;;;;;4161592;28;20053;-82
2021/12/14 04:31:51;;;;;;;22.10;9.77;;;8.40;99.90;;;;;;4180084;28;20048;-82
2021/12/14 04:33:54;;;;;;;19.45;8.95;;;8.30;99.90;;;;;;4161932;28;20068;-83
2021/12/14 04:35:55;;;;;;;22.83;9.45;;;8.30;99.90;;;;;;4179589;28;20120;-83
2021/12/14 04:37:58;;;;;;;22.15;9.73;;;8.30;99.90;;;;;;4161303;28;20068;-83
2021/12/14 04:40:18;;;;;;;25.38;10.30;;;8.30;99.90;;;;;;4145973;28;20045;-82
2021/12/14 04:51:59;;;;;;;27.42;9.93;;;8.20;99.90;;;;;;4179728;28;20053;-82
2021/12/14 04:54:02;;;;;;;26.33;9.80;;;8.20;99.90;;;;;;4145032;28;20053;-82
2021/12/14 04:56:06;;;;;;;20.92;9.55;;;8.20;99.90;;;;;;4167480;28;20532;-82
2021/12/14 04:58:07;;;;;;;21.38;8.52;;;8.20;99.90;;;;;;4156539;28;20049;-82
2021/12/14 05:00:23;;;;;;;24.80;9.10;;;8.20;99.90;;;;;;4180158;28;20041;-82
2021/12/14 05:02:29;;;;;;;22.65;10.35;;;8.90;99.90;;;;;;4149219;28;20042;-82
2021/12/14 05:04:32;;;;;;;22.73;9.82;;;7.90;99.90;;;;;;4150887;28;20046;-82
2021/12/14 05:09:21;;;;;;;21.75;9.57;;;8.20;99.90;;;;;;4128653;28;20050;-82
2021/12/14 05:11:23;;;;;;;24.52;11.02;;;8.20;99.90;;;;;;4161751;28;20057;-82
2021/12/14 05:13:33;;;;;;;25.50;9.82;;;8.20;99.90;;;;;;4178656;28;20069;-82
2021/12/14 05:15:39;;;;;;;21.77;9.10;;;9.00;99.90;;;;;;4179628;28;20455;-82
2021/12/14 05:17:44;;;;;;;23.70;10.02;;;8.80;99.90;;;;;;4179350;28;20055;-82
2021/12/14 05:19:46;;;;;;;26.83;10.57;;;8.20;99.90;;;;;;4161716;28;20177;-82
2021/12/14 05:21:48;;;;;;;26.83;10.95;;;8.10;99.90;;;;;;4179608;28;20136;-82
2021/12/14 05:23:49;;;;;;;25.20;10.90;;;8.20;99.90;;;;;;4179744;28;20037;-82
2021/12/14 05:25:51;;;;;;;23.40;10.30;;;8.20;99.90;;;;;;4179508;28;20055;-82
2021/12/14 05:27:59;;;;;;;23.40;9.85;;;8.20;99.90;;;;;;4179658;28;20037;-83
2021/12/14 05:30:27;;;;;;;23.52;9.98;;;8.20;99.90;;;;;;4160329;28;20128;-82
2021/12/14 05:32:28;;;;;;;26.48;10.20;;;8.20;99.90;;;;;;4179554;28;20413;-82
2021/12/14 05:34:30;;;;;;;24.02;9.68;;;8.20;99.90;;;;;;4179800;28;20045;-82
2021/12/14 05:36:31;;;;;;;24.40;10.25;;;8.30;99.90;;;;;;4180427;28;20071;-83
2021/12/14 05:40:57;;;;;;;23.40;9.50;;;8.20;99.90;;;;;;4180490;28;20049;-82
2021/12/14 05:43:07;;;;;;;26.73;10.48;;;8.20;99.90;;;;;;4180758;28;20496;-82
2021/12/14 05:45:21;;;;;;;27.00;10.23;;;8.20;99.90;;;;;;4161833;28;20053;-83
2021/12/14 05:47:22;;;;;;;27.63;9.43;;;8.20;99.90;;;;;;4180450;28;20047;-82
2021/12/14 05:49:27;;;;;;;26.48;10.55;;;8.30;99.90;;;;;;4162439;28;20084;-83
2021/12/14 05:51:30;;;;;;;25.85;10.07;;;8.20;99.90;;;;;;4163316;28;20080;-83
2021/12/14 05:53:34;;;;;;;23.77;10.02;;;8.20;99.90;;;;;;4162424;28;20072;-83
2021/12/14 05:55:39;;;;;;;23.42;10.52;;;8.60;99.90;;;;;;4180017;28;20045;-83
2021/12/14 05:57:40;;;;;;;23.23;9.75;;;8.20;99.90;;;;;;4179993;28;20045;-83
2021/12/14 05:59:40;;;;;;;26.67;10.98;;;8.60;99.90;;;;;;4179787;28;20505;-82
2021/12/14 06:01:41;;;;;;;24.52;11.32;;;8.10;99.90;;;;;;4169992;28;20048;-82
2021/12/14 06:03:48;;;;;;;25.95;10.90;;;8.10;99.90;;;;;;4163005;28;20111;-83
2021/12/14 06:05:50;;;;;;;24.35;10.73;;;8.20;99.90;;;;;;4147019;28;20046;-82
2021/12/14 06:07:51;;;;;;;24.98;10.70;;;8.80;99.90;;;;;;4183171;28;20051;-82
2021/12/14 06:09:55;;;;;;;23.90;10.45;;;8.20;99.90;;;;;;4182940;28;20195;-82
2021/12/14 06:12:03;;;;;;;24.73;10.57;;;8.40;99.90;;;;;;4182784;28;20059;-83
2021/12/14 06:14:12;;;;;;;27.87;10.83;;;8.10;99.90;;;;;;4183308;28;20111;-83
2021/12/14 06:16:27;;;;;;;;;;;8.10;99.90;;;;;;4149331;28;20402;-82
2021/12/14 06:18:28;;;;;;;22.35;9.32;;;8.20;99.90;;;;;;4182063;28;19924;-83
2021/12/14 06:20:29;;;;;;;24.65;10.95;;;8.10;99.90;;;;;;4183267;28;20094;-84
2021/12/14 06:22:30;;;;;;;25.00;10.07;;;8.20;99.90;;;;;;4197713;28;20029;-82
2021/12/14 06:24:35;;;;;;;26.35;11.13;;;8.10;99.90;;;;;;4201229;28;20041;-82
2021/12/14 06:26:39;;;;;;;28.23;12.13;;;8.20;99.90;;;;;;4182646;28;20042;-83
2021/12/14 06:28:40;;;;;;;28.65;10.90;;;8.10;99.90;;;;;;4191955;28;20049;-82
2021/12/14 06:30:43;;;;;;;25.88;10.90;;;8.10;99.90;;;;;;4180905;28;20060;-83
2021/12/14 06:32:53;;;;;;;27.58;9.18;;;8.20;99.90;;;;;;4162683;28;20042;-83
2021/12/14 06:35:01;;;;;;;25.88;10.88;;;8.20;99.90;;;;;;4159416;28;20054;-82
2021/12/14 06:39:25;;;;;;;23.08;10.18;;;8.20;99.90;;;;;;4145266;28;20045;-83
2021/12/14 06:41:26;;;;;;;28.05;12.02;;;8.20;99.90;;;;;;4164353;28;20110;-83
2021/12/14 06:43:56;;;;;;;30.25;11.88;;;8.20;99.90;;;;;;4181397;28;20128;-82
2021/12/14 06:46:01;;;;;;;30.83;12.10;;;8.20;99.90;;;;;;4182125;28;20045;-82
2021/12/14 06:48:10;;;;;;;26.08;10.27;;;8.20;99.90;;;;;;4182282;28;20459;-82
2021/12/14 06:50:15;;;;;;;25.17;11.38;;;8.20;99.90;;;;;;4164242;28;20061;-82
2021/12/14 06:52:16;;;;;;;26.08;10.63;;;8.50;99.90;;;;;;4163465;28;20100;-82
2021/12/14 06:54:20;;;;;;;23.83;11.10;;;8.50;99.90;;;;;;4164378;28;20042;-82
2021/12/14 06:56:28;;;;;;;28.55;11.32;;;8.40;99.90;;;;;;4181576;28;20045;-82
2021/12/14 06:58:32;;;;;;;29.05;12.38;;;8.70;99.90;;;;;;4163939;28;20111;-82
2021/12/14 07:00:34;;;;;;;26.55;11.35;;;8.50;99.90;;;;;;4158632;28;20448;-83
2021/12/14 07:02:35;;;;;;;28.30;10.90;;;8.30;99.90;;;;;;4180781;28;20111;-83
2021/12/14 07:04:42;;;;;;;27.83;11.68;;;8.30;99.90;;;;;;4172469;28;20113;-83
2021/12/14 07:06:45;;;;;;;24.80;10.98;;;8.70;99.90;;;;;;4164431;28;20045;-83
2021/12/14 07:08:46;;;;;;;32.10;12.40;;;8.20;99.90;;;;;;4183048;28;20371;-83
2021/12/14 07:10:47;;;;;;;27.77;11.02;;;8.30;99.90;;;;;;4182834;28;20047;-83
2021/12/14 07:12:48;;;;;;;30.02;12.00;;;8.30;99.90;;;;;;4165057;28;20048;-83
2021/12/14 07:14:49;;;;;;;29.48;11.52;;;8.20;99.90;;;;;;4149542;28;20045;-82
2021/12/14 07:16:51;;;;;;;27.58;11.27;;;8.80;99.90;;;;;;4180616;28;20045;-83
2021/12/14 07:18:54;;;;;;;29.27;11.27;;;8.30;99.90;;;;;;4164284;28;20053;-83
2021/12/14 07:20:56;;;;;;;29.70;12.02;;;8.20;99.90;;;;;;4182934;28;20481;-83
2021/12/14 07:23:18;;;;;;;31.95;12.68;;;8.20;99.90;;;;;;4173953;28;20046;-83
2021/12/14 07:25:32;;;;;;;30.05;11.70;;;8.20;99.90;;;;;;4167028;28;20049;-83
2021/12/14 07:27:40;;;;;;;27.40;11.10;;;8.20;99.90;;;;;;4166943;28;20046;-83
2021/12/14 07:29:41;;;;;;;30.75;12.25;;;8.50;99.90;;;;;;4181847;28;20385;-83
2021/12/14 07:31:45;;;;;;;26.35;12.02;;;8.20;99.90;;;;;;4166496;28;20068;-83
2021/12/14 07:33:53;;;;;;;30.70;12.48;;;8.20;99.90;;;;;;4182841;28;20057;-83
2021/12/14 07:36:01;;;;;;;36.50;11.73;;;8.20;99.90;;;;;;4177072;28;20064;-83
2021/12/14 07:38:15;;;;;;;31.92;12.80;;;8.20;99.90;;;;;;4182863;28;20052;-83
2021/12/14 07:40:16;;;;;;;30.65;11.70;;;8.20;99.90;;;;;;4182766;28;20127;-83
2021/12/14 07:42:17;;;;;;;31.23;11.80;;;8.20;99.90;;;;;;4182549;28;20056;-83
2021/12/14 07:44:25;;;;;;;33.22;12.27;;;8.60;99.90;;;;;;4165354;28;20156;-83
2021/12/14 07:46:42;;;;;;;32.47;12.23;;;8.20;99.90;;;;;;4164952;28;20485;-83
2021/12/14 07:48:50;;;;;;;28.42;11.70;;;8.20;99.90;;;;;;4164579;28;20049;-83
2021/12/14 07:50:56;;;;;;;31.58;13.25;;;8.20;99.90;;;;;;4148509;28;20049;-83
2021/12/14 07:52:56;;;;;;;29.55;13.07;;;8.20;99.90;;;;;;4175043;28;20092;-83
2021/12/14 07:55:04;;;;;;;35.20;13.50;;;8.20;99.90;;;;;;4183310;28;20051;-82
2021/12/14 07:57:18;;;;;;;30.65;11.82;;;8.20;99.90;;;;;;4149023;28;20052;-83
2021/12/14 07:59:32;;;;;;;29.42;12.60;;;8.10;99.90;;;;;;4183082;28;20139;-83
2021/12/14 08:01:36;;;;;;;30.30;12.63;;;8.20;99.90;;;;;;4182622;28;20052;-84
2021/12/14 08:03:38;;;;;;;35.10;12.98;;;8.50;99.90;;;;;;4161329;28;20045;-84
2021/12/14 08:05:45;;;;;;;38.97;13.52;;;8.20;99.90;;;;;;4181776;28;20060;-83
2021/12/14 08:07:53;;;;;;;33.05;12.93;;;8.60;99.90;;;;;;4183321;28;20131;-84
2021/12/14 08:10:14;;;;;;;37.63;13.55;;;8.20;99.90;;;;;;4164835;28;20094;-84
2021/12/14 08:12:53;;;;;;;31.75;12.13;;;8.20;99.90;;;;;;4159475;28;20045;-83
2021/12/14 08:15:05;;;;;;;36.63;14.25;;;8.20;99.90;;;;;;4115598;28;20471;-83
2021/12/14 08:17:08;;;;;;;35.10;12.38;;;8.20;99.90;;;;;;4142386;28;20057;-83
2021/12/14 08:19:33;;;;;;;32.90;12.48;;;8.20;99.90;;;;;;4182320;28;20044;-83
2021/12/14 08:21:34;;;;;;;38.97;13.18;;;8.20;99.90;;;;;;4163381;28;20414;-83
2021/12/14 08:23:40;;;;;;;35.63;13.55;;;9.00;99.90;;;;;;4152870;28;20149;-83
2021/12/14 08:25:42;;;;;;;32.47;11.73;;;8.20;99.90;;;;;;4163960;28;20049;-83
2021/12/14 08:27:42;;;;;;;32.70;12.48;;;8.20;99.90;;;;;;4181717;28;20060;-83
2021/12/14 08:29:52;;;;;;;33.92;12.70;;;8.30;99.90;;;;;;4147430;28;20045;-83
2021/12/14 08:31:55;;;;;;;37.40;13.38;;;8.90;99.90;;;;;;4147615;28;20486;-83
2021/12/14 08:34:02;;;;;;;34.08;13.68;;;8.20;99.90;;;;;;4165371;28;20570;-84
2021/12/14 08:36:10;;;;;;;30.15;11.75;;;8.30;99.90;;;;;;4131226;28;20466;-83
2021/12/14 08:38:15;;;;;;;28.20;10.93;;;8.30;99.90;;;;;;4148049;28;20057;-84
2021/12/14 08:40:26;;;;;;;34.78;12.50;;;8.30;99.90;;;;;;4148124;28;20449;-82
2021/12/14 08:42:36;;;;;;;31.05;12.70;;;8.30;99.90;;;;;;4147715;28;20081;-82
2021/12/14 08:44:40;;;;;;;34.92;13.13;;;8.60;99.90;;;;;;4165675;28;20077;-82
2021/12/14 08:46:42;;;;;;;35.58;13.10;;;8.30;99.90;;;;;;4138637;28;20099;-82
2021/12/14 08:48:47;;;;;;;35.85;13.13;;;8.30;99.90;;;;;;4148178;28;20057;-83
2021/12/14 08:50:57;;;;;;;41.25;13.77;;;8.30;99.90;;;;;;4181600;28;20049;-83
2021/12/14 08:52:59;;;;;;;31.50;12.48;;;8.30;99.90;;;;;;4163669;28;20056;-83
2021/12/14 08:55:05;;;;;;;39.63;13.68;;;8.30;99.90;;;;;;4164957;28;20064;-84
2021/12/14 08:57:15;;;;;;;32.67;11.60;;;8.30;99.90;;;;;;4148557;28;20046;-83
2021/12/14 08:59:17;;;;;;;39.13;13.30;;;8.30;99.90;;;;;;4165485;28;20048;-83
2021/12/14 09:01:23;;;;;;;30.60;11.63;;;8.50;99.90;;;;;;4147544;28;20049;-83
2021/12/14 09:03:33;;;;;;;40.90;14.45;;;8.90;99.90;;;;;;4161373;28;20517;-83
2021/12/14 09:05:41;;;;;;;36.55;12.68;;;8.50;99.90;;;;;;4163519;28;20049;-83
2021/12/14 09:07:44;;;;;;;33.88;12.80;;;8.50;99.90;;;;;;4163452;28;20053;-83
2021/12/14 09:09:46;;;;;;;42.30;13.45;;;8.80;99.90;;;;;;4172906;28;20896;-83
2021/12/14 09:11:53;;;;;;;38.22;13.00;;;8.30;99.90;;;;;;4163863;28;20092;-83
2021/12/14 09:13:54;;;;;;;35.72;12.95;;;8.40;99.90;;;;;;4147392;28;20148;-84
2021/12/14 09:16:04;;;;;;;32.35;12.57;;;8.50;99.90;;;;;;4173865;28;20545;-83
2021/12/14 09:18:06;;;;;;;35.20;12.52;;;8.40;99.90;;;;;;4161772;28;20053;-83
2021/12/14 09:20:26;;;;;;;34.28;12.25;;;8.40;99.90;;;;;;4161451;28;20054;-83
2021/12/14 09:22:33;;;;;;;32.70;12.35;;;8.40;99.90;;;;;;4159841;28;20053;-83
2021/12/14 09:24:34;;;;;;;32.75;10.95;;;8.40;99.90;;;;;;4163583;28;20120;-83
2021/12/14 09:26:37;;;;;;;30.15;11.80;;;8.50;99.90;;;;;;4151084;28;20033;-83
2021/12/14 09:28:38;;;;;;;37.65;12.38;;;8.40;99.90;;;;;;4153531;28;20461;-83
2021/12/14 09:30:47;;;;;;;31.55;13.50;;;8.40;99.90;;;;;;4161639;28;20041;-83
2021/12/14 09:32:48;;;;;;;34.88;13.18;;;8.40;99.90;;;;;;4158720;28;20041;-83
2021/12/14 09:34:50;;;;;;;32.58;13.15;;;8.40;99.90;;;;;;4181206;28;20041;-83
2021/12/14 09:36:52;;;;;;;36.70;12.95;;;9.00;99.90;;;;;;4180776;28;20094;-83
2021/12/14 09:38:57;;;;;;;39.53;12.88;;;8.50;99.90;;;;;;4162981;28;20117;-83
2021/12/14 09:41:04;;;;;;;36.30;11.23;;;8.50;99.90;;;;;;4149392;28;20054;-84
2021/12/14 09:43:05;;;;;;;37.30;12.52;;;8.50;99.90;;;;;;4178576;28;20072;-84
2021/12/14 09:45:12;;;;;;;34.42;13.07;;;8.90;99.90;;;;;;4183691;28;20055;-83
2021/12/14 09:47:21;;;;;;;43.50;13.45;;;8.50;99.90;;;;;;4184281;28;20053;-83
2021/12/14 09:49:22;;;;;;;38.75;13.45;;;9.00;99.90;;;;;;4166606;28;20535;-83
2021/12/14 09:51:31;;;;;;;36.80;12.48;;;8.50;99.90;;;;;;4176208;28;20037;-83
2021/12/14 09:53:32;;;;;;;37.72;13.20;;;8.60;99.90;;;;;;4152781;28;20054;-84
2021/12/14 09:55:37;;;;;;;32.00;12.40;;;8.60;99.90;;;;;;4150437;28;20545;-84
2021/12/14 09:57:42;;;;;;;37.83;13.52;;;9.40;99.90;;;;;;4167807;28;20382;-84
2021/12/14 09:59:43;;;;;;;40.45;13.52;;;8.60;99.90;;;;;;4167373;28;20060;-83
2021/12/14 10:01:50;;;;;;;35.72;13.70;;;9.00;99.90;;;;;;4150015;28;20093;-83
2021/12/14 10:03:54;;;;;;;37.78;13.77;;;9.10;99.90;;;;;;4167831;28;20053;-82
2021/12/14 10:05:58;;;;;;;30.75;12.63;;;8.60;99.90;;;;;;4184411;28;20049;-83
2021/12/14 10:07:59;;;;;;;40.55;13.45;;;8.60;99.90;;;;;;4184156;28;20068;-83
2021/12/14 10:10:03;;;;;;;31.42;12.82;;;9.10;99.90;;;;;;4150625;28;20481;-83
2021/12/14 10:12:18;;;;;;;30.98;12.68;;;8.60;99.90;;;;;;4184729;28;20080;-83
2021/12/14 10:14:19;;;;;;;30.65;13.20;;;8.60;99.90;;;;;;4184145;28;20124;-83
2021/12/14 10:16:20;;;;;;;28.45;11.60;;;9.00;99.90;;;;;;4179290;28;20462;-84
2021/12/14 10:18:26;;;;;;;29.50;12.30;;;8.80;99.90;;;;;;4167000;28;20045;-83
2021/12/14 10:20:34;;;;;;;32.20;11.70;;;8.80;99.90;;;;;;4150105;28;20061;-84
2021/12/14 10:22:35;;;;;;;32.10;11.85;;;8.60;99.90;;;;;;4173442;28;20045;-84
2021/12/14 10:24:36;;;;;;;36.38;13.68;;;8.70;99.90;;;;;;4184037;28;20051;-83
2021/12/14 10:26:42;;;;;;;31.92;11.88;;;8.60;99.90;;;;;;4166263;28;20505;-84
2021/12/14 10:28:47;;;;;;;32.83;12.52;;;8.60;99.90;;;;;;4151228;28;20168;-83
2021/12/14 10:30:56;;;;;;;32.75;12.30;;;8.60;99.90;;;;;;4132786;28;20123;-83
2021/12/14 10:32:59;;;;;;;;;;;8.60;99.90;;;;;;4178213;28;20056;-82
2021/12/14 10:35:15;;;;;;;29.25;10.85;;;8.60;99.90;;;;;;4182222;28;19999;-82
2021/12/14 10:37:24;;;;;;;33.60;12.45;;;8.60;99.90;;;;;;4148806;28;20057;-84
2021/12/14 10:43:55;;;;;;;35.92;12.52;;;9.10;99.90;;;;;;4165963;28;20429;-83
2021/12/14 10:46:08;;;;;;;31.73;12.63;;;8.60;99.90;;;;;;4183843;28;20041;-82
2021/12/14 10:48:13;;;;;;;33.08;11.88;;;8.60;99.90;;;;;;4167387;28;20513;-82
2021/12/14 10:50:19;;;;;;;31.48;12.25;;;8.20;99.90;;;;;;4133311;28;20055;-82
2021/12/14 10:52:25;;;;;;;31.20;11.75;;;8.60;99.90;;;;;;4152682;28;20124;-83
2021/12/14 10:54:27;;;;;;;32.80;11.32;;;8.60;99.90;;;;;;4165797;28;20102;-83
2021/12/14 10:56:35;;;;;;;32.30;11.98;;;8.80;99.90;;;;;;4183645;28;20124;-83
2021/12/14 10:58:37;;;;;;;29.95;11.02;;;8.60;99.90;;;;;;4165670;28;20054;-83
2021/12/14 11:00:47;;;;;;;31.13;11.65;;;8.60;99.90;;;;;;4165801;28;20089;-83
2021/12/14 11:02:48;;;;;;;31.85;11.43;;;8.60;99.90;;;;;;4149072;28;20136;-82
2021/12/14 11:04:55;;;;;;;28.50;11.85;;;8.60;99.90;;;;;;4183142;28;20052;-82
2021/12/14 11:06:58;;;;;;;27.13;10.25;;;8.60;99.90;;;;;;4165526;28;20049;-83
2021/12/14 11:11:19;;;;;;;;;;;8.80;99.90;;;;;;4159947;28;20077;-82
2021/12/14 11:13:23;;;;;;;27.80;10.50;;;8.70;99.90;;;;;;4183807;28;20324;-82
2021/12/14 11:15:35;;;;;;;31.63;11.35;;;8.70;99.90;;;;;;4148580;28;20119;-82
2021/12/14 11:20:06;;;;;;;27.58;10.15;;;8.90;99.90;;;;;;4166388;28;20116;-82
2021/12/14 11:22:17;;;;;;;33.03;10.20;;;8.70;99.90;;;;;;4180929;28;20056;-82
2021/12/14 11:24:31;;;;;;;29.45;11.00;;;8.70;99.90;;;;;;4150328;28;20057;-83
2021/12/14 11:26:35;;;;;;;25.60;10.05;;;8.70;99.90;;;;;;4166167;28;20049;-82